Latest Weather Observations for Iron Bridge Mine

IDW60801

Issued at 10:13 pm WST Tuesday 7 December 2021 (issued every 10 minutes, with the page automatically refreshed every 10 minutes)

About weather observations | Map of weather stations | Latest weather observations for WA | Other Formats
Station Details ID: 504066 Name: IRONBRIDGE AIRPORT Lat: -21.28 Lon: 118.88 Height: 196.58 m
Data from the previous 72 hours. | See also: Recent months for locations in Western Australia
Date/Time
WST
Temp
°C
App
Temp
°C
Dew
Point
°C
Rel
Hum
%
Delta-T
°C
Wind Press
QNH
hPa
Press
MSL
hPa
Rain since
9am
mm
Dir  Spd
km/h
Gust
km/h
Spd
kts
Gust
kts
07/10:00pm 32.3 30.2 15.3 35 10.6 S 20 30 11 16 1009.4 1007.7 0.0
07/09:30pm 32.6 31.7 16.8 38 10.1 SSW 17 24 9 13 1009.5 1007.8 0.0
07/09:00pm 33.0 31.1 16.8 38 10.4 SSW 22 33 12 18 1009.3 1007.6 0.0
07/08:30pm 35.1 34.0 15.4 30 12.4 WNW 15 22 8 12 1008.6 1006.9 0.0
07/08:00pm 35.6 34.3 16.8 32 12.1 NW 19 24 10 13 1007.3 1005.6 0.0
07/07:30pm 36.4 34.6 17.0 31 12.6 NNW 22 30 12 16 1007.0 1005.2 0.0
07/07:00pm 37.0 34.7 17.6 32 12.7 NNW 26 33 14 18 1006.1 1004.4 0.0
07/06:30pm 38.3 35.7 17.7 30 13.5 NNW 28 37 15 20 1005.4 1003.7 0.0
07/06:00pm 39.3 38.4 16.8 26 14.7 NW 17 24 9 13 1004.8 1003.1 0.0
07/05:30pm 40.6 39.1 15.4 22 16.2 N 17 30 9 16 1004.2 1002.5 0.0
07/05:00pm 40.6 39.2 13.3 20 17.0 NNW 13 20 7 11 1004.0 1002.3 0.0
07/04:30pm 40.7 38.5 13.3 19 17.1 N 17 32 9 17 1004.0 1002.3 0.0
07/04:00pm 41.9 40.2 13.5 19 17.9 NNE 15 20 8 11 1004.1 1002.4 0.0
07/03:30pm 39.6 37.3 14.6 23 15.8 NNW 20 32 11 17 1004.5 1002.8 0.0
07/03:00pm 43.3 40.9 13.8 18 18.7 NNE 19 32 10 17 1004.8 1003.1 0.0
07/02:30pm 44.0 43.2 15.2 18 18.6 ENE 13 24 7 13 1005.1 1003.4 0.0
07/02:00pm 42.8 42.3 15.0 19 17.9 NNE 11 26 6 14 1005.4 1003.7 0.0
07/01:30pm 41.1 39.3 14.4 21 16.9 NNE 17 32 9 17 1005.7 1004.0 0.0
07/01:00pm 41.8 39.5 14.2 19 17.5 NE 19 32 10 17 1006.0 1004.3 0.0
07/12:30pm 41.0 39.1 15.1 22 16.6 NNE 19 33 10 18 1006.2 1004.5 0.0
07/12:00pm 41.3 39.7 13.8 20 17.3 ENE 15 24 8 13 1006.6 1004.8 0.0
07/11:30am 40.7 37.7 12.6 19 17.4 NE 20 30 11 16 1007.0 1005.2 0.0
07/11:00am 40.4 36.7 11.5 18 17.6 NE 22 41 12 22 1007.1 1005.3 0.0
07/10:30am 40.2 36.2 10.5 17 17.8 ENE 22 39 12 21 1007.4 1005.7 0.0
07/10:00am 39.7 34.8 10.1 17 17.6 NE 26 37 14 20 1007.7 1006.0 0.0
07/09:30am 39.3 34.1 8.9 16 17.8 ENE 26 35 14 19 1007.6 1005.9 0.0
07/09:00am 38.6 34.1 10.0 18 16.9 ENE 24 35 13 19 1007.8 1006.1 2.6
07/08:30am 38.8 34.7 10.2 18 17.0 E 22 32 12 17 1007.4 1005.7 2.6
07/08:00am 36.8 33.7 11.6 22 15.2 E 19 30 10 16 1007.4 1005.7 2.6
07/07:30am 33.4 34.4 15.4 34 11.3 SSE 4 6 2 3 1007.4 1005.7 2.6
07/07:00am 30.5 31.8 17.2 44 8.5 ENE 6 7 3 4 1007.0 1005.2 2.6
07/06:30am 28.9 30.6 18.4 53 6.8 E 7 9 4 5 1007.1 1005.3 2.6
07/06:00am 28.5 30.8 18.6 55 6.4 N 4 6 2 3 1006.6 1004.8 2.6
07/05:30am 27.4 28.8 17.8 55 6.1 WNW 7 9 4 5 1005.8 1004.1 2.6
07/05:00am 28.4 29.7 17.6 52 6.9 NW 7 9 4 5 1005.7 1004.0 2.6
07/04:30am 29.5 31.5 17.0 47 7.9 WSW 2 7 1 4 1005.5 1003.8 2.6
07/04:00am 29.7 30.1 15.4 42 8.9 NNW 7 11 4 6 1005.0 1003.3 2.6
07/03:30am 29.5 31.4 16.7 46 8.1 NE 2 4 1 2 1004.5 1002.8 2.6
07/03:00am 29.2 29.7 15.0 42 8.7 NNE 6 7 3 4 1004.3 1002.6 2.6
07/02:30am 29.8 31.4 16.9 45 8.2 W 4 4 2 2 1004.0 1002.3 2.6
07/02:00am 29.8 29.9 14.4 39 9.4 NNE 7 11 4 6 1004.3 1002.6 2.6
07/01:30am 30.0 30.6 15.7 42 8.9 SW 7 9 4 5 1004.2 1002.5 2.6
07/01:00am 31.3 31.6 14.4 35 10.4 SW 6 9 3 5 1004.1 1002.4 2.6
07/12:30am 33.2 32.7 13.8 31 11.9 S 9 15 5 8 1004.1 1002.4 2.6
07/12:00am 35.0 33.7 12.6 26 13.6 E 11 19 6 10 1004.6 1002.9 2.6
 
Date/Time
WST
Temp
°C
App
Temp
°C
Dew
Point
°C
Rel
Hum
%
Delta-T
°C
Wind Press
QNH
hPa
Press
MSL
hPa
Rain since
9am
mm
Dir  Spd
km/h
Gust
km/h
Spd
kts
Gust
kts
06/11:30pm 34.1 32.8 12.4 26 13.1 NNW 11 19 6 10 1004.8 1003.1 2.6
06/11:00pm 33.7 33.7 13.7 30 12.3 SW 6 7 3 4 1004.1 1002.4 2.6
06/10:30pm 35.6 33.2 12.5 24 14.0 E 17 24 9 13 1004.5 1002.8 2.6
06/10:00pm 38.3 33.9 9.0 17 17.1 NE 22 33 12 18 1004.0 1002.3 2.6
06/09:30pm 35.1 32.0 14.4 29 12.9 ESE 24 33 13 18 1003.9 1002.2 2.6
06/09:14pm 35.7 32.5 12.0 24 14.3 E 20 37 11 20 1003.9 1002.2 2.6
06/09:00pm 33.6 33.8 14.6 31 11.8 SE 7 19 4 10 1004.2 1002.5 2.6
06/08:30pm 33.8 32.9 14.8 32 11.8 SSW 13 15 7 8 1004.4 1002.7 2.6
06/08:00pm 33.8 33.6 14.8 32 11.8 SSW 9 15 5 8 1004.1 1002.4 2.6
06/07:30pm 34.3 31.7 13.7 29 12.7 ESE 20 26 11 14 1004.4 1002.7 2.6
06/07:14pm 34.3 31.1 14.2 29 12.4 ESE 24 61 13 33 1004.1 1002.4 2.6
06/07:00pm 34.7 30.9 13.5 28 13.0 NW 26 35 14 19 1003.3 1001.6 2.6
06/06:30pm 34.0 30.1 14.5 31 12.1 NW 28 39 15 21 1003.6 1001.9 2.6
06/06:00pm 33.6 31.8 16.0 34 11.1 WNW 20 33 11 18 1003.6 1001.9 2.6
06/05:30pm 34.4 30.2 16.3 34 11.5 N 33 48 18 26 1002.3 1000.5 2.6
06/05:00pm 31.4 26.6 18.4 46 8.5 N 41 52 22 28 1002.6 1000.9 2.6
06/04:38pm 32.6 30.6 19.1 44 8.9 NNE 28 46 15 25 1003.3 1001.6 1.8
06/04:30pm 34.5 32.1 17.3 36 11.1 NNE 26 37 14 20 1003.3 1001.6 1.2
06/04:00pm 34.2 32.1 19.8 42 9.6 NNE 30 46 16 25 1003.3 1001.6 1.2
06/03:54pm 35.6 35.1 17.8 35 11.6 NNW 17 46 9 25 1003.1 1001.4 1.2
06/03:53pm 36.8 36.7 17.9 33 12.4 NW 15 46 8 25 1003.2 1001.5 1.2
06/03:30pm 35.2 34.7 20.7 42 9.8 W 24 37 13 20 1001.1 999.4 0.8
06/03:00pm 40.6 36.2 14.0 21 16.8 WNW 30 41 16 22 1000.8 999.1 0.0
06/02:55pm 40.8 36.6 13.4 20 17.1 NW 28 41 15 22 1000.9 999.2 0.0
06/02:30pm 43.7 41.8 9.2 13 20.6 N 9 20 5 11 1000.9 999.2 0.0
06/02:00pm 45.3 41.9 9.3 12 21.6 NNE 17 28 9 15 1001.3 999.5 0.0
06/01:30pm 44.4 42.3 9.8 13 20.9 NNW 11 24 6 13 1001.8 1000.0 0.0
06/01:00pm 42.8 39.2 10.7 15 19.5 ENE 20 35 11 19 1002.2 1000.4 0.0
06/12:30pm 45.4 41.7 9.3 12 21.7 NE 19 35 10 19 1002.3 1000.5 0.0
06/12:00pm 44.5 40.4 8.6 12 21.3 ENE 20 32 11 17 1002.6 1000.9 0.0
06/11:30am 44.3 41.1 8.5 12 21.2 E 15 44 8 24 1002.0 1000.2 0.0
06/11:00am 43.1 39.3 9.9 14 20.0 NE 20 32 11 17 1003.1 1001.4 0.0
06/10:30am 42.1 38.6 10.1 15 19.2 NE 19 33 10 18 1003.5 1001.8 0.0
06/10:00am 43.6 38.8 10.2 14 20.2 E 26 35 14 19 1003.6 1001.9 0.0
06/09:30am 43.1 38.9 9.9 14 20.0 E 22 37 12 20 1003.7 1002.0 0.0
06/09:00am 42.1 37.6 10.1 15 19.2 E 24 37 13 20 1004.0 1002.3 0.0
06/08:30am 41.4 37.5 9.6 15 18.9 E 20 33 11 18 1004.1 1002.4 0.0
06/08:00am 40.1 38.6 8.5 15 18.4 ESE 6 9 3 5 1004.3 1002.6 0.0
06/07:30am 39.3 37.1 7.9 15 18.1 ESE 9 13 5 7 1004.3 1002.6 0.0
06/07:00am 37.8 34.9 6.7 15 17.5 SSE 11 17 6 9 1004.2 1002.5 0.0
06/06:30am 35.2 32.1 3.7 14 16.7 SSE 9 11 5 6 1004.1 1002.4 0.0
06/06:00am 34.7 30.8 3.3 14 16.5 S 13 17 7 9 1003.9 1002.2 0.0
06/05:30am 33.9 29.7 3.7 15 15.9 S 15 20 8 11 1003.7 1002.0 0.0
06/05:00am 34.1 30.3 3.8 15 16.0 S 13 17 7 9 1003.5 1001.8 0.0
06/04:30am 34.4 31.6 5.0 16 15.8 SSE 9 13 5 7 1003.3 1001.6 0.0
06/04:00am 34.6 32.0 6.0 17 15.6 SSE 9 13 5 7 1003.0 1001.3 0.0
06/03:30am 35.0 32.1 6.3 17 15.8 S 11 15 6 8 1002.9 1001.2 0.0
06/03:00am 35.1 32.2 8.0 19 15.3 SSE 13 19 7 10 1002.8 1001.1 0.0
06/02:30am 35.5 34.2 9.8 21 15.0 SSW 7 9 4 5 1002.8 1001.1 0.0
06/02:00am 34.3 33.8 10.8 24 13.8 WSW 4 9 2 5 1002.8 1001.1 0.0
06/01:30am 33.7 34.0 12.1 27 12.9 E 2 4 1 2 1002.6 1000.9 0.0
06/01:00am 34.4 33.9 12.1 26 13.4 SSE 6 7 3 4 1002.7 1001.0 0.0
06/12:30am 35.0 35.1 12.6 26 13.6 E 4 7 2 4 1003.0 1001.3 0.0
06/12:00am 35.6 36.0 12.5 24 14.0 NE 2 4 1 2 1003.6 1001.9 0.0
 
Date/Time
WST
Temp
°C
App
Temp
°C
Dew
Point
°C
Rel
Hum
%
Delta-T
°C
Wind Press
QNH
hPa
Press
MSL
hPa
Rain since
9am
mm
Dir  Spd
km/h
Gust
km/h
Spd
kts
Gust
kts
05/11:30pm 35.8 35.1 13.3 26 13.8 SSW 9 15 5 8 1004.0 1002.3 0.0
05/11:00pm 36.3 35.2 13.1 25 14.2 N 11 19 6 10 1003.6 1001.9 0.0
05/10:30pm 36.3 36.5 11.9 23 14.7 E 2 6 1 3 1004.1 1002.4 0.0
05/10:00pm 36.1 35.7 11.0 22 14.9 NNW 4 7 2 4 1003.7 1002.0 0.0
05/09:30pm 36.7 35.3 10.8 21 15.4 NNW 9 11 5 6 1003.7 1002.0 0.0
05/09:00pm 37.3 36.2 9.8 19 16.1 NNW 6 7 3 4 1003.7 1002.0 0.0
05/08:30pm 38.1 36.2 10.5 19 16.4 WNW 11 15 6 8 1003.6 1001.9 0.0
05/08:00pm 39.2 36.3 9.7 17 17.4 WNW 15 22 8 12 1003.3 1001.6 0.0
05/07:30pm 39.5 37.2 4.8 12 19.1 SSW 6 6 3 3 1003.0 1001.3 0.0
05/07:00pm 40.5 38.7 5.6 12 19.5 SSW 4 6 2 3 1002.7 1001.0 0.0
05/06:30pm 42.4 40.4 4.4 10 21.1 S 4 6 2 3 1002.5 1000.7 0.0
05/06:00pm 43.0 40.7 4.9 10 21.3 SSE 6 9 3 5 1002.2 1000.4 0.0
05/05:30pm 43.9 40.8 5.5 10 21.8 S 11 20 6 11 1001.9 1000.1 0.0
05/05:00pm 44.3 41.0 4.3 9 22.4 ESE 11 22 6 12 1002.0 1000.2 0.0
05/04:30pm 44.4 40.6 5.9 10 22.0 SE 15 28 8 15 1002.1 1000.3 0.0
05/04:00pm 44.5 40.4 6.0 10 22.1 SSE 17 30 9 16 1002.3 1000.5 0.0
05/03:30pm 44.6 41.9 7.4 11 21.7 SSW 11 24 6 13 1002.3 1000.5 0.0
05/03:00pm 44.5 39.8 6.0 10 22.1 SE 20 32 11 17 1002.8 1001.1 0.0
05/02:30pm 44.3 41.2 7.2 11 21.6 S 13 26 7 14 1003.1 1001.4 0.0
05/02:00pm 44.6 40.8 7.4 11 21.7 S 17 33 9 18 1003.7 1002.0 0.0
05/01:30pm 43.7 39.9 9.2 13 20.6 SSE 19 32 10 17 1004.3 1002.6 0.0
05/01:00pm 43.0 39.2 9.8 14 19.9 S 20 33 11 18 1004.7 1003.0 0.0
05/12:30pm 43.0 40.1 9.8 14 19.9 SSE 15 32 8 17 1005.1 1003.4 0.0
05/12:00pm 42.0 37.9 10.0 15 19.2 SSE 22 33 12 18 1005.5 1003.8 0.0
05/11:30am 41.2 37.8 10.4 16 18.5 S 19 28 10 15 1005.9 1004.2 0.0
05/11:00am 40.3 36.9 10.6 17 17.8 SSE 19 35 10 19 1006.2 1004.5 0.0
05/10:30am 39.6 35.7 10.8 18 17.3 SSE 22 33 12 18 1006.8 1005.0 0.0
05/10:00am 38.2 34.8 11.3 20 16.2 SSE 20 33 11 18 1007.0 1005.2 0.0
05/09:30am 37.4 33.3 11.4 21 15.6 SE 24 39 13 21 1007.5 1005.8 0.0
05/09:00am 36.1 32.1 11.7 23 14.7 SE 24 37 13 20 1007.6 1005.9 0.0
05/08:30am 35.3 31.5 12.3 25 13.9 SE 24 32 13 17 1007.9 1006.2 0.0
05/08:00am 35.0 31.1 12.0 25 13.8 SE 24 33 13 18 1007.9 1006.2 0.0
05/07:30am 33.9 28.9 12.3 27 13.0 SE 30 37 16 20 1007.7 1006.0 0.0
05/07:00am 33.5 29.5 11.9 27 12.9 SSE 24 32 13 17 1007.6 1005.9 0.0
05/06:30am 33.0 29.7 11.5 27 12.7 SSE 20 32 11 17 1007.4 1005.7 0.0
05/06:00am 32.1 29.7 11.3 28 12.2 S 15 24 8 13 1007.0 1005.2 0.0
05/05:30am 32.0 29.9 11.2 28 12.2 SSE 13 19 7 10 1006.3 1004.6 0.0
05/05:00am 31.8 29.5 10.5 27 12.3 SSE 13 17 7 9 1005.9 1004.2 0.0
05/04:30am 32.6 30.2 10.0 25 13.0 SSE 13 17 7 9 1005.4 1003.7 0.0
05/04:00am 34.2 30.7 10.1 23 14.0 SSE 19 26 10 14 1005.1 1003.4 0.0
05/03:30am 34.8 31.4 9.3 21 14.7 S 17 26 9 14 1005.0 1003.3 0.0
05/03:00am 35.0 31.1 5.4 16 16.1 SW 15 20 8 11 1004.8 1003.1 0.0
05/02:30am 35.4 32.0 5.8 16 16.2 SSW 13 20 7 11 1005.0 1003.3 0.0
05/02:00am 34.4 31.4 5.8 17 15.6 WSW 11 17 6 9 1004.7 1003.0 0.0
05/01:30am 32.9 31.2 8.4 22 13.8 WNW 7 11 4 6 1004.7 1003.0 0.0
05/01:00am 33.8 31.7 9.8 23 13.9 NW 11 15 6 8 1004.8 1003.1 0.0
05/12:30am 34.2 32.4 10.7 24 13.8 NW 11 15 6 8 1005.1 1003.4 0.0
05/12:00am 34.6 33.3 11.1 24 13.9 NNW 9 15 5 8 1005.4 1003.7 0.0
 
Date/Time
WST
Temp
°C
App
Temp
°C
Dew
Point
°C
Rel
Hum
%
Delta-T
°C
Wind Press
QNH
hPa
Press
MSL
hPa
Rain since
9am
mm
Dir  Spd
km/h
Gust
km/h
Spd
kts
Gust
kts
04/11:30pm 35.5 33.8 11.2 23 14.5 NNW 11 19 6 10 1005.7 1004.0 0.0
04/11:00pm 35.1 33.5 11.5 24 14.1 NW 11 17 6 9 1005.8 1004.1 0.0
04/10:30pm 35.2 33.0 10.9 23 14.4 NNW 13 15 7 8 1006.0 1004.3 0.0

Other formats

Comma delimited format used in spreadsheet applications
http://www.bom.gov.au/fwo/IDW60801/IDW60801.99366.axf

JavaScript Object Notation format (JSON) in row-major order
http://www.bom.gov.au/fwo/IDW60801/IDW60801.99366.json

Data quality

Most of these data are generated automatically and are frequently updated. Quality checks on data are not normally performed. It is possible for incorrect values to appear. Refer to information at About Latest Weather Observations and please check the disclaimer before using these data.